createdAt,value
2023-05-21T00:01:25.896Z,9.18
2023-05-21T00:03:53.626Z,10.18
2023-05-21T00:06:21.300Z,10.32
2023-05-21T00:08:48.432Z,9.00
2023-05-21T00:11:15.657Z,9.65
2023-05-21T00:13:42.824Z,9.25
2023-05-21T00:16:11.429Z,8.65
2023-05-21T00:18:39.641Z,9.63
2023-05-21T00:21:07.271Z,8.70
2023-05-21T00:23:34.467Z,9.80
2023-05-21T00:26:01.500Z,8.45
2023-05-21T00:28:29.102Z,9.25
2023-05-21T00:30:57.124Z,9.48
2023-05-21T00:33:43.741Z,8.88
2023-05-21T00:36:16.729Z,9.93
2023-05-21T00:38:44.342Z,8.57
2023-05-21T00:41:11.570Z,8.85
2023-05-21T00:43:41.854Z,8.90
2023-05-21T00:46:17.490Z,9.07
2023-05-21T00:48:46.450Z,8.77
2023-05-21T00:51:17.111Z,9.18
2023-05-21T00:53:45.304Z,8.50
2023-05-21T00:56:12.720Z,8.88
2023-05-21T00:58:40.802Z,9.15
2023-05-21T01:01:14.018Z,9.20
2023-05-21T01:03:41.498Z,9.73
2023-05-21T01:06:09.921Z,9.75
2023-05-21T01:08:38.653Z,8.82
2023-05-21T01:11:07.230Z,9.43
2023-05-21T01:13:37.763Z,9.32
2023-05-21T01:16:06.871Z,8.70
2023-05-21T01:18:40.266Z,8.07
2023-05-21T01:21:10.085Z,9.18
2023-05-21T01:23:37.285Z,9.20
2023-05-21T01:26:04.627Z,9.30
2023-05-21T01:28:33.848Z,8.60
2023-05-21T01:31:08.987Z,8.85
2023-05-21T01:33:47.522Z,8.95
2023-05-21T01:36:27.836Z,9.45
2023-05-21T01:39:06.072Z,8.68
2023-05-21T01:41:38.517Z,8.85
2023-05-21T01:44:07.898Z,8.88
2023-05-21T01:46:36.961Z,8.82
2023-05-21T01:49:06.513Z,9.07
2023-05-21T01:51:34.300Z,9.10
2023-05-21T01:54:02.016Z,7.85
2023-05-21T01:56:29.164Z,8.80
2023-05-21T01:58:59.988Z,8.85
2023-05-21T02:01:30.436Z,9.15
2023-05-21T02:04:00.810Z,9.32
2023-05-21T02:08:55.812Z,9.45
2023-05-21T02:11:23.693Z,8.93
2023-05-21T02:13:50.795Z,9.25
2023-05-21T02:16:19.953Z,9.00
2023-05-21T02:18:48.325Z,8.63
2023-05-21T02:21:15.771Z,8.98
2023-05-21T02:23:42.855Z,8.73
2023-05-21T02:26:09.916Z,8.63
2023-05-21T02:28:38.671Z,8.75
2023-05-21T02:31:05.811Z,8.30
2023-05-21T02:33:32.963Z,8.73
2023-05-21T02:36:00.184Z,8.45
2023-05-21T02:38:27.238Z,8.88
2023-05-21T02:40:54.621Z,8.50
2023-05-21T02:43:22.013Z,8.65
2023-05-21T02:45:49.159Z,8.45
2023-05-21T02:48:16.347Z,8.48
2023-05-21T02:50:44.572Z,8.55
2023-05-21T02:53:14.587Z,7.93
2023-05-21T02:55:42.290Z,7.97
2023-05-21T02:58:09.692Z,8.32
2023-05-21T03:00:36.877Z,8.90
2023-05-21T03:03:04.135Z,8.05
2023-05-21T03:05:31.556Z,8.85
2023-05-21T03:07:58.631Z,8.35
2023-05-21T03:10:26.111Z,7.68
2023-05-21T03:12:55.012Z,8.20
2023-05-21T03:15:24.422Z,8.40
2023-05-21T03:17:54.427Z,8.07
2023-05-21T03:20:23.606Z,7.97
2023-05-21T03:22:50.656Z,7.95
2023-05-21T03:25:18.833Z,8.18
2023-05-21T03:27:46.081Z,8.23
2023-05-21T03:30:29.561Z,8.10
2023-05-21T03:33:17.182Z,7.68
2023-05-21T03:35:44.996Z,7.15
2023-05-21T03:38:12.249Z,7.72
2023-05-21T03:40:39.554Z,7.82
2023-05-21T03:43:07.363Z,8.30
2023-05-21T03:45:35.906Z,7.50
2023-05-21T03:48:25.945Z,7.80
2023-05-21T03:50:53.038Z,7.75
2023-05-21T03:53:20.156Z,8.43
2023-05-21T03:55:54.828Z,7.18
2023-05-21T03:58:24.194Z,7.93
2023-05-21T04:00:51.528Z,7.50
2023-05-21T04:03:18.870Z,7.28
2023-05-21T04:05:46.032Z,7.40
2023-05-21T04:08:13.751Z,6.95
2023-05-21T04:10:40.970Z,6.78
2023-05-21T04:13:08.142Z,7.55
2023-05-21T04:15:35.774Z,7.00
2023-05-21T04:18:03.146Z,7.47
2023-05-21T04:20:30.293Z,7.13
2023-05-21T04:22:57.308Z,7.47
2023-05-21T04:25:25.649Z,7.55
2023-05-21T04:27:54.898Z,7.65
2023-05-21T04:30:24.260Z,7.45
2023-05-21T04:32:55.446Z,7.45
2023-05-21T04:35:23.642Z,6.88
2023-05-21T04:37:50.774Z,5.97
2023-05-21T04:40:24.582Z,7.07
2023-05-21T04:42:52.141Z,6.40
2023-05-21T04:45:24.769Z,6.10
2023-05-21T04:47:53.469Z,6.28
2023-05-21T04:50:20.604Z,6.13
2023-05-21T04:52:48.834Z,5.95
2023-05-21T04:55:16.012Z,5.93
2023-05-21T04:57:43.652Z,5.70
2023-05-21T05:00:11.842Z,6.10
2023-05-21T05:02:42.720Z,5.63
2023-05-21T05:05:10.051Z,5.80
2023-05-21T05:07:37.437Z,5.90
2023-05-21T05:10:05.250Z,5.63
2023-05-21T05:12:33.417Z,4.90
2023-05-21T05:15:00.801Z,5.97
2023-05-21T05:17:29.160Z,5.18
2023-05-21T05:19:56.400Z,5.53
2023-05-21T05:22:23.564Z,5.70
2023-05-21T05:24:51.292Z,5.32
2023-05-21T05:27:19.228Z,5.38
2023-05-21T05:29:47.255Z,6.10
2023-05-21T05:32:15.027Z,4.80
2023-05-21T05:34:42.949Z,5.18
2023-05-21T05:37:09.980Z,5.28
2023-05-21T05:39:37.027Z,5.13
2023-05-21T05:42:07.012Z,4.97
2023-05-21T05:44:34.079Z,5.57
2023-05-21T05:47:01.712Z,5.55
2023-05-21T05:49:28.729Z,5.05
2023-05-21T05:51:56.817Z,5.57
2023-05-21T05:54:23.939Z,5.00
2023-05-21T05:56:51.241Z,5.18
2023-05-21T05:59:18.495Z,5.38
2023-05-21T06:01:48.872Z,5.85
2023-05-21T06:04:16.638Z,5.43
2023-05-21T06:06:43.715Z,5.45
2023-05-21T06:09:11.204Z,5.72
2023-05-21T06:11:38.765Z,5.72
2023-05-21T06:14:06.165Z,5.82
2023-05-21T06:16:34.208Z,5.47
2023-05-21T06:19:01.420Z,5.93
2023-05-21T06:21:28.697Z,5.50
2023-05-21T06:23:56.059Z,5.32
2023-05-21T06:26:29.529Z,5.88
2023-05-21T06:28:57.328Z,6.28
2023-05-21T06:31:24.818Z,6.18
2023-05-21T06:33:52.083Z,5.75
2023-05-21T06:36:20.577Z,5.72
2023-05-21T06:38:48.597Z,5.78
2023-05-21T06:41:15.716Z,5.90
2023-05-21T06:43:49.745Z,6.03
2023-05-21T06:46:36.097Z,5.85
2023-05-21T06:49:07.308Z,6.03
2023-05-21T06:51:35.059Z,7.07
2023-05-21T06:54:04.217Z,6.03
2023-05-21T06:56:31.588Z,5.95
2023-05-21T06:58:59.550Z,5.95
2023-05-21T07:01:28.039Z,6.15
2023-05-21T07:03:55.879Z,5.80
2023-05-21T07:06:22.983Z,6.15
2023-05-21T07:08:50.778Z,6.43
2023-05-21T07:11:17.842Z,5.78
2023-05-21T07:13:45.601Z,5.38
2023-05-21T07:16:13.292Z,6.15
2023-05-21T07:18:41.200Z,5.43
2023-05-21T07:21:08.612Z,6.47
2023-05-21T07:23:36.675Z,6.65
2023-05-21T07:26:03.774Z,6.53
2023-05-21T07:28:30.936Z,6.30
2023-05-21T07:30:58.035Z,5.75
2023-05-21T07:33:32.279Z,5.97
2023-05-21T07:35:59.869Z,6.75
2023-05-21T07:38:27.545Z,5.85
2023-05-21T07:40:54.559Z,6.53
2023-05-21T07:43:21.664Z,6.28
2023-05-21T07:45:48.737Z,5.85
2023-05-21T07:48:15.787Z,6.20
2023-05-21T07:50:52.978Z,6.10
2023-05-21T07:53:20.352Z,6.13
2023-05-21T07:55:48.225Z,5.57
2023-05-21T07:58:19.856Z,6.20
2023-05-21T08:00:48.912Z,5.72
2023-05-21T08:03:18.735Z,6.22
2023-05-21T08:05:49.236Z,5.68
2023-05-21T08:08:18.307Z,6.18
2023-05-21T08:10:47.960Z,5.93
2023-05-21T08:13:16.475Z,5.60
2023-05-21T08:15:44.110Z,5.75
2023-05-21T08:18:12.406Z,5.20
2023-05-21T08:20:41.609Z,6.38
2023-05-21T08:23:09.325Z,5.28
2023-05-21T08:25:41.722Z,5.97
2023-05-21T08:28:10.097Z,5.80
2023-05-21T08:33:07.547Z,6.03
2023-05-21T08:35:35.121Z,5.60
2023-05-21T08:38:31.889Z,5.72
2023-05-21T08:41:08.251Z,5.35
2023-05-21T08:43:37.894Z,5.97
2023-05-21T08:46:06.883Z,6.18
2023-05-21T08:48:37.753Z,6.45
2023-05-21T08:51:05.367Z,6.18
2023-05-21T08:53:36.799Z,5.88
2023-05-21T08:56:06.960Z,5.90
2023-05-21T08:58:49.499Z,6.22
2023-05-21T09:01:21.948Z,6.90
2023-05-21T09:04:12.241Z,6.65
2023-05-21T09:06:48.002Z,7.10
2023-05-21T09:09:30.541Z,7.25
2023-05-21T09:11:57.585Z,6.57
2023-05-21T09:14:25.181Z,6.80
2023-05-21T09:17:07.678Z,7.00
2023-05-21T09:19:35.704Z,7.00
2023-05-21T09:22:06.396Z,7.50
2023-05-21T09:24:36.274Z,6.80
2023-05-21T09:29:34.814Z,7.07
2023-05-21T09:32:07.335Z,7.43
2023-05-21T09:34:37.348Z,6.97
2023-05-21T09:37:16.390Z,7.07
2023-05-21T09:39:53.740Z,7.10
2023-05-21T09:42:22.155Z,6.25
2023-05-21T09:44:49.853Z,6.93
2023-05-21T09:47:20.590Z,6.75
2023-05-21T09:49:47.657Z,6.97
2023-05-21T09:52:23.031Z,6.22
2023-05-21T09:54:52.130Z,6.57
2023-05-21T09:57:28.287Z,6.13
2023-05-21T09:59:56.130Z,6.05
2023-05-21T10:02:24.607Z,5.78
2023-05-21T10:04:54.500Z,6.20
2023-05-21T10:07:26.544Z,6.35
2023-05-21T10:09:58.189Z,5.93
2023-05-21T10:12:26.146Z,5.90
2023-05-21T10:15:01.558Z,5.88
2023-05-21T10:17:30.743Z,6.15
2023-05-21T10:19:59.650Z,6.15
2023-05-21T10:22:26.865Z,5.93
2023-05-21T10:24:54.966Z,5.88
2023-05-21T10:27:23.345Z,6.40
2023-05-21T10:29:51.074Z,5.63
2023-05-21T10:32:20.589Z,5.97
2023-05-21T10:34:48.780Z,5.47
2023-05-21T10:37:17.014Z,5.35
2023-05-21T10:39:46.091Z,5.88
2023-05-21T10:42:33.387Z,5.90
2023-05-21T10:45:37.865Z,5.00
2023-05-21T10:48:30.025Z,5.55
2023-05-21T10:51:18.826Z,6.00
2023-05-21T10:54:23.573Z,6.00
2023-05-21T10:57:18.315Z,5.38
2023-05-21T10:59:49.517Z,4.82
2023-05-21T11:02:17.997Z,5.30
2023-05-21T11:04:45.763Z,5.60
2023-05-21T11:07:13.383Z,4.85
2023-05-21T11:09:40.444Z,5.47
2023-05-21T11:12:09.997Z,5.10
2023-05-21T11:14:39.917Z,5.28
2023-05-21T11:19:51.683Z,4.80
2023-05-21T11:22:25.750Z,4.82
2023-05-21T11:24:54.766Z,4.97
2023-05-21T11:27:39.044Z,5.43
2023-05-21T11:30:10.614Z,5.32
2023-05-21T11:33:14.271Z,5.03
2023-05-21T11:35:50.520Z,4.50
2023-05-21T11:38:18.213Z,5.05
2023-05-21T11:40:55.464Z,5.20
2023-05-21T11:43:23.064Z,4.82
2023-05-21T11:45:53.270Z,4.57
2023-05-21T11:48:26.693Z,5.88
2023-05-21T11:50:55.137Z,5.70
2023-05-21T11:53:22.252Z,5.10
2023-05-21T11:55:57.460Z,5.53
2023-05-21T11:58:24.942Z,4.82
2023-05-21T12:00:52.231Z,4.85
2023-05-21T12:03:20.095Z,5.25
2023-05-21T12:05:48.158Z,4.93
2023-05-21T12:08:25.614Z,4.88
2023-05-21T12:11:00.188Z,5.30
2023-05-21T12:13:28.475Z,5.47
2023-05-21T12:15:55.542Z,4.75
2023-05-21T12:18:22.736Z,5.00
2023-05-21T12:20:52.273Z,5.28
2023-05-21T12:23:25.945Z,5.25
2023-05-21T12:25:53.932Z,5.65
2023-05-21T12:28:22.273Z,5.38
2023-05-21T12:30:49.364Z,5.45
2023-05-21T12:33:18.167Z,5.70
2023-05-21T12:35:50.428Z,5.18
2023-05-21T12:38:17.729Z,5.40
2023-05-21T12:40:45.951Z,5.15
2023-05-21T12:43:13.374Z,5.45
2023-05-21T12:45:41.175Z,5.22
2023-05-21T12:48:08.514Z,4.90
2023-05-21T12:50:39.901Z,5.00
2023-05-21T12:53:09.585Z,5.03
2023-05-21T12:55:36.620Z,4.95
2023-05-21T12:58:11.058Z,5.35
2023-05-21T13:00:38.481Z,5.03
2023-05-21T13:03:06.933Z,5.00
2023-05-21T13:05:34.713Z,5.10
2023-05-21T13:08:02.010Z,4.80
2023-05-21T13:10:29.110Z,5.30
2023-05-21T13:12:56.177Z,5.00
2023-05-21T13:15:23.310Z,4.90
2023-05-21T13:17:51.109Z,5.15
2023-05-21T13:20:34.548Z,5.22
2023-05-21T13:23:03.966Z,4.93
2023-05-21T13:25:33.008Z,4.82
2023-05-21T13:28:03.234Z,5.63
2023-05-21T13:30:30.805Z,5.60
2023-05-21T13:32:58.057Z,5.32
2023-05-21T13:35:25.401Z,5.05
2023-05-21T13:37:52.431Z,6.00
2023-05-21T13:40:19.560Z,5.32
2023-05-21T13:42:48.595Z,5.22
2023-05-21T13:45:18.301Z,4.85
2023-05-21T13:47:46.539Z,4.90
2023-05-21T13:50:14.229Z,5.60
2023-05-21T13:52:41.531Z,5.10
2023-05-21T13:55:09.946Z,5.03
2023-05-21T13:57:37.146Z,4.95
2023-05-21T14:00:05.294Z,5.30
2023-05-21T14:02:35.248Z,5.18
2023-05-21T14:05:02.559Z,5.15
2023-05-21T14:07:29.625Z,5.22
2023-05-21T14:09:56.954Z,5.20
2023-05-21T14:12:24.294Z,5.18
2023-05-21T14:14:51.941Z,4.63
2023-05-21T14:17:19.025Z,5.03
2023-05-21T14:19:46.202Z,4.90
2023-05-21T14:22:13.362Z,5.05
2023-05-21T14:24:40.465Z,4.90
2023-05-21T14:27:07.531Z,4.90
2023-05-21T14:29:34.538Z,4.88
2023-05-21T14:32:01.925Z,4.50
2023-05-21T14:34:29.310Z,5.03
2023-05-21T14:36:56.325Z,4.43
2023-05-21T14:39:23.522Z,4.45
2023-05-21T14:41:50.607Z,4.93
2023-05-21T14:44:17.873Z,4.47
2023-05-21T14:46:44.949Z,5.30
2023-05-21T14:49:12.441Z,4.78
2023-05-21T14:51:39.428Z,4.05
2023-05-21T14:54:06.599Z,4.80
2023-05-21T14:56:33.593Z,4.90
2023-05-21T14:59:00.650Z,4.38
2023-05-21T15:01:27.722Z,4.47
2023-05-21T15:03:57.121Z,4.80
2023-05-21T15:06:24.781Z,4.38
2023-05-21T15:08:51.813Z,4.75
2023-05-21T15:11:18.955Z,4.72
2023-05-21T15:13:46.597Z,5.03
2023-05-21T15:16:13.737Z,4.45
2023-05-21T15:18:41.052Z,4.70
2023-05-21T15:21:08.134Z,4.97
2023-05-21T15:23:35.151Z,4.55
2023-05-21T15:26:02.381Z,4.90
2023-05-21T15:28:29.677Z,4.78
2023-05-21T15:30:57.541Z,4.55
2023-05-21T15:33:24.793Z,4.93
2023-05-21T15:35:51.912Z,5.30
2023-05-21T15:38:19.350Z,4.38
2023-05-21T15:40:47.647Z,5.05
2023-05-21T15:43:14.644Z,5.28
2023-05-21T15:45:42.126Z,4.93
2023-05-21T15:48:09.326Z,4.70
2023-05-21T15:50:36.466Z,4.75
2023-05-21T15:53:04.667Z,5.03
2023-05-21T15:55:34.859Z,4.65
2023-05-21T15:58:03.797Z,5.15
2023-05-21T16:00:30.889Z,5.18
2023-05-21T16:02:58.334Z,5.28
2023-05-21T16:05:26.517Z,5.32
2023-05-21T16:07:53.613Z,4.78
2023-05-21T16:10:21.808Z,5.07
2023-05-21T16:12:48.921Z,5.50
2023-05-21T16:15:16.117Z,4.97
2023-05-21T16:17:45.752Z,5.50
2023-05-21T16:20:13.427Z,5.00
2023-05-21T16:22:41.162Z,5.43
2023-05-21T16:25:08.572Z,5.03
2023-05-21T16:27:36.443Z,5.95
2023-05-21T16:30:04.337Z,6.95
2023-05-21T16:32:31.440Z,6.03
2023-05-21T16:34:58.683Z,7.03
2023-05-21T16:37:27.072Z,5.57
2023-05-21T16:39:54.138Z,5.75
2023-05-21T16:42:21.136Z,6.18
2023-05-21T16:44:48.220Z,6.22
2023-05-21T16:47:15.409Z,5.68
2023-05-21T16:49:42.420Z,8.98
2023-05-21T16:52:09.634Z,6.20
2023-05-21T16:54:36.667Z,5.85
2023-05-21T16:57:03.732Z,5.18
2023-05-21T16:59:30.928Z,6.13
2023-05-21T17:01:58.059Z,7.28
2023-05-21T17:04:25.248Z,6.20
2023-05-21T17:06:52.258Z,7.47
2023-05-21T17:09:19.384Z,5.65
2023-05-21T17:11:46.395Z,7.15
2023-05-21T17:14:15.390Z,5.55
2023-05-21T17:16:50.595Z,6.20
2023-05-21T17:19:17.607Z,6.40
2023-05-21T17:21:44.789Z,6.30
2023-05-21T17:24:11.851Z,5.88
2023-05-21T17:26:38.857Z,6.10
2023-05-21T17:29:06.003Z,6.25
2023-05-21T17:31:33.134Z,5.78
2023-05-21T17:34:01.030Z,5.95
2023-05-21T17:36:28.167Z,6.38
2023-05-21T17:38:55.347Z,6.05
2023-05-21T17:41:22.503Z,6.22
2023-05-21T17:43:49.504Z,5.93
2023-05-21T17:46:18.119Z,6.15
2023-05-21T17:48:45.802Z,6.35
2023-05-21T17:51:13.233Z,5.82
2023-05-21T17:53:40.974Z,5.63
2023-05-21T17:56:08.383Z,6.03
2023-05-21T17:58:39.058Z,6.05
2023-05-21T18:01:06.216Z,6.30
2023-05-21T18:03:33.349Z,6.18
2023-05-21T18:06:00.392Z,5.70
2023-05-21T18:08:27.434Z,6.47
2023-05-21T18:10:54.449Z,6.07
2023-05-21T18:13:21.677Z,6.07
2023-05-21T18:15:48.781Z,5.93
2023-05-21T18:18:20.616Z,6.18
2023-05-21T18:20:49.199Z,6.43
2023-05-21T18:23:17.076Z,6.20
2023-05-21T18:25:44.197Z,6.15
2023-05-21T18:28:11.238Z,6.68
2023-05-21T18:30:38.474Z,6.35
2023-05-21T18:33:05.841Z,6.47
2023-05-21T18:35:32.864Z,6.47
2023-05-21T18:37:59.890Z,6.88
2023-05-21T18:40:30.420Z,6.10
2023-05-21T18:42:57.822Z,6.75
2023-05-21T18:45:24.896Z,7.13
2023-05-21T18:47:52.207Z,6.85
2023-05-21T18:50:19.663Z,6.53
2023-05-21T18:52:47.018Z,6.18
2023-05-21T18:55:15.147Z,6.28
2023-05-21T18:57:42.175Z,7.10
2023-05-21T19:00:09.868Z,7.10
2023-05-21T19:02:37.583Z,6.28
2023-05-21T19:05:05.078Z,7.57
2023-05-21T19:07:32.249Z,7.07
2023-05-21T19:10:00.439Z,6.85
2023-05-21T19:12:29.492Z,6.43
2023-05-21T19:14:56.596Z,6.95
2023-05-21T19:17:23.980Z,8.80
2023-05-21T19:19:55.967Z,7.47
2023-05-21T19:22:27.217Z,10.07
2023-05-21T19:24:54.930Z,10.07
2023-05-21T19:27:22.063Z,9.38
2023-05-21T19:29:49.278Z,11.35
2023-05-21T19:32:16.686Z,10.27
2023-05-21T19:34:43.714Z,11.88
2023-05-21T19:37:10.723Z,9.60
2023-05-21T19:39:42.371Z,7.40
2023-05-21T19:42:10.449Z,7.97
2023-05-21T19:44:40.880Z,7.47
2023-05-21T19:47:08.246Z,8.52
2023-05-21T19:49:35.245Z,7.25
2023-05-21T19:52:02.712Z,9.82
2023-05-21T19:54:29.754Z,7.40
2023-05-21T19:56:57.517Z,8.57
2023-05-21T19:59:24.511Z,8.52
2023-05-21T20:01:51.796Z,8.10
2023-05-21T20:04:18.895Z,7.28
2023-05-21T20:06:46.127Z,7.03
2023-05-21T20:09:13.477Z,6.82
2023-05-21T20:11:42.332Z,7.55
2023-05-21T20:14:09.573Z,7.25
2023-05-21T20:16:37.106Z,7.03
2023-05-21T20:19:04.311Z,7.28
2023-05-21T20:21:34.034Z,8.68
2023-05-21T20:24:01.218Z,7.15
2023-05-21T20:26:28.229Z,7.53
2023-05-21T20:28:55.303Z,7.47
2023-05-21T20:31:22.758Z,7.22
2023-05-21T20:33:52.473Z,7.00
2023-05-21T20:36:21.416Z,7.50
2023-05-21T20:38:48.541Z,6.95
2023-05-21T20:41:15.931Z,8.07
2023-05-21T20:43:46.304Z,6.85
2023-05-21T20:46:13.773Z,7.35
2023-05-21T20:48:41.889Z,7.20
2023-05-21T20:51:09.289Z,7.45
2023-05-21T20:53:37.127Z,6.82
2023-05-21T20:56:08.343Z,6.85
2023-05-21T20:58:35.636Z,6.80
2023-05-21T21:01:02.799Z,7.45
2023-05-21T21:03:34.085Z,7.25
2023-05-21T21:06:01.484Z,6.80
2023-05-21T21:08:28.642Z,6.85
2023-05-21T21:10:55.990Z,7.63
2023-05-21T21:13:23.177Z,7.50
2023-05-21T21:15:50.378Z,7.30
2023-05-21T21:18:17.759Z,7.00
2023-05-21T21:20:49.933Z,6.82
2023-05-21T21:23:17.111Z,7.25
2023-05-21T21:25:44.428Z,8.02
2023-05-21T21:28:11.534Z,7.32
2023-05-21T21:30:41.350Z,6.82
2023-05-21T21:33:08.882Z,7.63
2023-05-21T21:35:36.181Z,7.38
2023-05-21T21:38:05.145Z,6.97
2023-05-21T21:40:32.231Z,7.75
2023-05-21T21:42:59.369Z,7.05
2023-05-21T21:45:26.807Z,7.35
2023-05-21T21:47:53.978Z,6.85
2023-05-21T21:50:21.094Z,7.55
2023-05-21T21:52:49.121Z,7.28
2023-05-21T21:55:16.354Z,7.55
2023-05-21T21:57:43.373Z,7.40
2023-05-21T22:00:11.788Z,8.20
2023-05-21T22:02:40.383Z,7.63
2023-05-21T22:05:08.844Z,8.07
2023-05-21T22:07:38.859Z,7.95
2023-05-21T22:10:06.787Z,7.10
2023-05-21T22:12:34.337Z,7.97
2023-05-21T22:15:05.459Z,8.30
2023-05-21T22:17:33.067Z,8.65
2023-05-21T22:20:01.328Z,8.45
2023-05-21T22:22:28.437Z,8.75
2023-05-21T22:24:55.719Z,8.80
2023-05-21T22:27:22.736Z,7.95
2023-05-21T22:29:49.757Z,7.93
2023-05-21T22:32:17.008Z,8.85
2023-05-21T22:34:44.017Z,8.35
2023-05-21T22:37:11.293Z,8.38
2023-05-21T22:39:38.438Z,7.65
2023-05-21T22:42:05.897Z,8.32
2023-05-21T22:44:32.925Z,8.38
2023-05-21T22:47:01.133Z,8.13
2023-05-21T22:49:28.309Z,8.48
2023-05-21T22:51:55.463Z,8.27
2023-05-21T22:54:22.836Z,8.93
2023-05-21T22:56:50.050Z,8.55
2023-05-21T22:59:17.154Z,8.60
2023-05-21T23:01:44.327Z,8.57
2023-05-21T23:04:11.321Z,8.88
2023-05-21T23:06:38.356Z,8.25
2023-05-21T23:09:05.473Z,8.70
2023-05-21T23:11:32.580Z,8.40
2023-05-21T23:13:59.633Z,9.00
2023-05-21T23:16:26.872Z,8.05
2023-05-21T23:18:54.594Z,8.93
2023-05-21T23:21:22.132Z,8.90
2023-05-21T23:23:49.245Z,8.50
2023-05-21T23:26:16.366Z,8.63
2023-05-21T23:28:43.414Z,8.35
2023-05-21T23:31:10.976Z,8.73
2023-05-21T23:33:38.333Z,8.93
2023-05-21T23:36:05.648Z,8.60
2023-05-21T23:38:32.710Z,8.40
2023-05-21T23:40:59.754Z,8.55
2023-05-21T23:43:26.826Z,9.02
2023-05-21T23:45:53.954Z,8.80
2023-05-21T23:48:21.182Z,8.70
2023-05-21T23:50:48.318Z,7.97
2023-05-21T23:53:15.441Z,9.40
2023-05-21T23:55:42.556Z,8.57
2023-05-21T23:58:09.643Z,8.00
